createdAt,value
2018-12-31T00:04:12.590Z,80.81
2018-12-31T00:06:39.304Z,80.82
2018-12-31T00:09:04.573Z,80.81
2018-12-31T00:11:28.992Z,81.78
2018-12-31T00:13:53.408Z,81.52
2018-12-31T00:16:17.822Z,81.59
2018-12-31T00:18:42.223Z,82.01
2018-12-31T00:21:06.615Z,82.63
2018-12-31T00:23:31.064Z,81.96
2018-12-31T00:25:55.459Z,81.53
2018-12-31T00:28:19.857Z,81.50
2018-12-31T00:30:44.291Z,81.14
2018-12-31T00:33:08.699Z,81.17
2018-12-31T00:35:33.145Z,81.27
2018-12-31T00:37:57.525Z,81.97
2018-12-31T00:40:21.942Z,82.04
2018-12-31T00:42:46.329Z,82.51
2018-12-31T00:45:10.763Z,81.71
2018-12-31T00:47:35.159Z,81.63
2018-12-31T00:49:59.563Z,81.74
2018-12-31T00:52:23.998Z,81.27
2018-12-31T00:54:48.382Z,81.71
2018-12-31T00:57:12.791Z,82.20
2018-12-31T00:59:37.269Z,82.49
2018-12-31T01:02:01.697Z,82.08
2018-12-31T01:04:26.087Z,80.94
2018-12-31T01:06:50.503Z,80.97
2018-12-31T01:09:14.891Z,80.64
2018-12-31T01:11:39.318Z,81.14
2018-12-31T01:14:03.775Z,81.73
2018-12-31T01:16:28.166Z,82.22
2018-12-31T01:18:52.570Z,81.98
2018-12-31T01:21:16.963Z,82.33
2018-12-31T01:23:41.365Z,81.92
2018-12-31T01:26:05.761Z,80.76
2018-12-31T01:28:30.179Z,79.33
2018-12-31T01:30:54.570Z,80.09
2018-12-31T01:33:18.967Z,77.96
2018-12-31T01:35:43.355Z,76.65
2018-12-31T01:38:07.760Z,79.11
2018-12-31T01:40:32.173Z,80.95
2018-12-31T01:42:56.553Z,81.57
2018-12-31T01:45:20.957Z,81.24
2018-12-31T01:47:45.368Z,80.33
2018-12-31T01:50:09.785Z,81.11
2018-12-31T01:52:34.344Z,81.36
2018-12-31T01:54:58.749Z,81.61
2018-12-31T01:57:23.174Z,82.04
2018-12-31T01:59:47.599Z,82.23
2018-12-31T02:02:11.984Z,82.61
2018-12-31T02:04:36.383Z,82.41
2018-12-31T02:07:00.786Z,82.98
2018-12-31T02:09:25.190Z,83.17
2018-12-31T02:11:49.604Z,83.31
2018-12-31T02:14:13.984Z,81.95
2018-12-31T02:16:38.383Z,81.99
2018-12-31T02:19:02.792Z,80.17
2018-12-31T02:21:27.208Z,80.61
2018-12-31T02:23:51.604Z,81.22
2018-12-31T02:26:16.030Z,80.16
2018-12-31T02:28:40.445Z,81.70
2018-12-31T02:31:04.894Z,80.04
2018-12-31T02:33:29.307Z,78.80
2018-12-31T02:35:53.699Z,79.19
2018-12-31T02:38:18.116Z,80.01
2018-12-31T02:40:42.516Z,79.98
2018-12-31T02:43:06.936Z,80.64
2018-12-31T02:45:31.355Z,80.26
2018-12-31T02:47:55.771Z,80.11
2018-12-31T02:50:20.201Z,80.92
2018-12-31T02:52:44.599Z,80.87
2018-12-31T02:55:09.009Z,80.95
2018-12-31T02:57:33.393Z,79.95
2018-12-31T02:59:59.089Z,79.05
2018-12-31T03:02:23.568Z,78.98
2018-12-31T03:04:47.974Z,79.33
2018-12-31T03:07:14.897Z,79.54
2018-12-31T03:09:39.302Z,77.79
2018-12-31T03:12:03.723Z,76.86
2018-12-31T03:14:28.158Z,78.20
2018-12-31T03:16:52.538Z,78.47
2018-12-31T03:19:16.922Z,79.31
2018-12-31T03:21:41.350Z,77.65
2018-12-31T03:24:05.749Z,78.22
2018-12-31T03:26:30.165Z,79.55
2018-12-31T03:28:54.577Z,79.72
2018-12-31T03:31:18.995Z,79.62
2018-12-31T03:33:43.390Z,78.89
2018-12-31T03:36:07.805Z,79.41
2018-12-31T03:38:32.192Z,78.43
2018-12-31T03:40:56.623Z,78.89
2018-12-31T03:43:21.002Z,78.39
2018-12-31T03:45:45.390Z,77.21
2018-12-31T03:48:09.808Z,78.14
2018-12-31T03:50:34.199Z,79.68
2018-12-31T03:52:58.615Z,79.84
2018-12-31T03:55:22.987Z,81.01
2018-12-31T03:57:47.396Z,79.79
2018-12-31T04:00:11.797Z,80.44
2018-12-31T04:02:36.219Z,80.78
2018-12-31T04:05:00.604Z,82.15
2018-12-31T04:07:24.991Z,82.61
2018-12-31T04:09:49.388Z,82.63
2018-12-31T04:12:13.787Z,81.85
2018-12-31T04:14:38.206Z,80.68
2018-12-31T04:17:02.602Z,81.49
2018-12-31T04:19:27.010Z,80.87
2018-12-31T04:21:51.408Z,81.03
2018-12-31T04:24:15.817Z,81.30
2018-12-31T04:26:40.198Z,80.06
2018-12-31T04:29:04.612Z,81.53
2018-12-31T04:31:29.018Z,80.91
2018-12-31T04:33:53.419Z,78.52
2018-12-31T04:36:17.806Z,76.87
2018-12-31T04:38:42.190Z,76.99
2018-12-31T04:41:06.602Z,76.65
2018-12-31T04:43:31.020Z,75.88
2018-12-31T04:45:55.426Z,78.12
2018-12-31T04:48:19.812Z,79.95
2018-12-31T04:50:44.219Z,78.63
2018-12-31T04:53:08.611Z,77.54
2018-12-31T04:55:33.005Z,79.13
2018-12-31T04:57:57.431Z,80.59
2018-12-31T05:00:21.832Z,80.99
2018-12-31T05:02:46.247Z,80.64
2018-12-31T05:05:10.631Z,80.34
2018-12-31T05:07:35.044Z,79.58
2018-12-31T05:09:59.428Z,79.54
2018-12-31T05:12:23.848Z,79.72
2018-12-31T05:14:48.224Z,77.77
2018-12-31T05:17:12.651Z,77.86
2018-12-31T05:19:37.060Z,77.24
2018-12-31T05:22:01.447Z,77.26
2018-12-31T05:24:25.856Z,76.50
2018-12-31T05:26:50.228Z,76.38
2018-12-31T05:29:14.649Z,76.57
2018-12-31T05:31:39.067Z,76.23
2018-12-31T05:34:03.494Z,76.26
2018-12-31T05:36:27.879Z,75.71
2018-12-31T05:38:52.339Z,75.95
2018-12-31T05:41:17.848Z,76.19
2018-12-31T05:43:42.302Z,76.50
2018-12-31T05:46:06.706Z,77.14
2018-12-31T05:48:31.151Z,76.07
2018-12-31T05:50:55.500Z,75.62
2018-12-31T05:53:19.889Z,75.54
2018-12-31T05:55:44.293Z,75.76
2018-12-31T05:58:08.700Z,75.65
2018-12-31T06:00:33.463Z,76.12
2018-12-31T06:02:57.854Z,75.63
2018-12-31T06:05:22.279Z,75.38
2018-12-31T06:07:48.993Z,76.25
2018-12-31T06:10:13.391Z,76.10
2018-12-31T06:12:37.806Z,75.66
2018-12-31T06:15:02.204Z,76.20
2018-12-31T06:17:26.619Z,76.13
2018-12-31T06:19:51.016Z,76.95
2018-12-31T06:22:15.428Z,77.31
2018-12-31T06:24:39.836Z,76.27
2018-12-31T06:27:04.259Z,76.29
2018-12-31T06:29:28.661Z,77.11
2018-12-31T06:31:53.098Z,76.35
2018-12-31T06:34:17.522Z,76.56
2018-12-31T06:36:41.926Z,75.95
2018-12-31T06:39:07.584Z,76.34
2018-12-31T06:41:31.985Z,75.86
2018-12-31T06:43:56.398Z,76.25
2018-12-31T06:46:20.791Z,75.97
2018-12-31T06:48:45.207Z,76.54
2018-12-31T06:51:09.593Z,76.36
2018-12-31T06:53:34.001Z,75.42
2018-12-31T06:55:58.387Z,76.42
2018-12-31T06:58:22.790Z,76.23
2018-12-31T07:00:47.181Z,76.21
2018-12-31T07:03:11.565Z,76.91
2018-12-31T07:05:35.971Z,77.27
2018-12-31T07:08:00.372Z,77.38
2018-12-31T07:10:24.800Z,77.04
2018-12-31T07:12:49.195Z,76.15
2018-12-31T07:15:13.625Z,76.35
2018-12-31T07:17:38.019Z,76.43
2018-12-31T07:20:02.433Z,75.76
2018-12-31T07:22:26.829Z,76.31
2018-12-31T07:24:51.225Z,76.33
2018-12-31T07:27:15.631Z,75.89
2018-12-31T07:29:40.038Z,76.15
2018-12-31T07:32:04.455Z,75.85
2018-12-31T07:34:28.935Z,76.15
2018-12-31T07:36:53.377Z,76.39
2018-12-31T07:39:17.754Z,75.88
2018-12-31T07:41:42.154Z,75.86
2018-12-31T07:44:06.548Z,75.43
2018-12-31T07:46:30.957Z,76.10
2018-12-31T07:48:55.362Z,76.00
2018-12-31T07:51:19.759Z,76.42
2018-12-31T07:53:44.162Z,75.89
2018-12-31T07:56:08.566Z,75.34
2018-12-31T07:58:32.973Z,75.31
2018-12-31T08:00:57.382Z,75.26
2018-12-31T08:03:21.779Z,75.54
2018-12-31T08:05:46.190Z,76.14
2018-12-31T08:08:10.602Z,75.36
2018-12-31T08:10:35.020Z,75.37
2018-12-31T08:12:59.584Z,75.86
2018-12-31T08:15:23.992Z,76.27
2018-12-31T08:17:48.388Z,76.97
2018-12-31T08:20:12.785Z,76.10
2018-12-31T08:22:37.203Z,76.07
2018-12-31T08:25:01.626Z,76.44
2018-12-31T08:27:26.034Z,76.45
2018-12-31T08:29:50.452Z,75.89
2018-12-31T08:32:14.871Z,76.05
2018-12-31T08:34:39.286Z,76.64
2018-12-31T08:37:03.700Z,76.52
2018-12-31T08:39:28.099Z,77.04
2018-12-31T08:41:52.518Z,77.51
2018-12-31T08:44:16.927Z,76.87
2018-12-31T08:46:41.356Z,77.19
2018-12-31T08:49:05.756Z,77.50
2018-12-31T08:51:30.155Z,78.20
2018-12-31T08:53:54.555Z,79.16
2018-12-31T08:56:18.964Z,78.34
2018-12-31T08:58:43.364Z,78.02
2018-12-31T09:01:07.793Z,77.36
2018-12-31T09:03:32.179Z,77.90
2018-12-31T09:05:56.577Z,77.50
2018-12-31T09:08:20.984Z,76.80
2018-12-31T09:10:45.381Z,76.78
2018-12-31T09:13:11.951Z,76.87
2018-12-31T09:15:36.331Z,77.46
2018-12-31T09:18:00.764Z,77.84
2018-12-31T09:20:25.202Z,77.71
2018-12-31T09:22:49.629Z,78.19
2018-12-31T09:25:14.034Z,78.89
2018-12-31T09:27:38.465Z,78.63
2018-12-31T09:30:02.899Z,79.48
2018-12-31T09:32:27.302Z,79.11
2018-12-31T09:34:51.735Z,78.57
2018-12-31T09:37:16.154Z,78.50
2018-12-31T09:39:40.577Z,78.44
2018-12-31T09:42:04.964Z,79.10
2018-12-31T09:44:29.402Z,78.90
2018-12-31T09:46:53.796Z,80.03
2018-12-31T09:49:18.242Z,79.21
2018-12-31T09:51:42.635Z,79.71
2018-12-31T09:54:07.032Z,79.25
2018-12-31T09:56:31.454Z,79.11
2018-12-31T09:58:55.843Z,79.42
2018-12-31T10:01:20.260Z,79.18
2018-12-31T10:03:44.662Z,80.55
2018-12-31T10:06:09.079Z,81.58
2018-12-31T10:08:33.469Z,81.29
2018-12-31T10:10:57.889Z,80.12
2018-12-31T10:13:22.288Z,80.96
2018-12-31T10:15:46.728Z,81.63
2018-12-31T10:18:11.131Z,81.63
2018-12-31T10:20:35.521Z,82.06
2018-12-31T10:22:59.941Z,82.71
2018-12-31T10:25:24.324Z,83.27
2018-12-31T10:27:48.755Z,82.04
2018-12-31T10:30:13.168Z,82.31
2018-12-31T10:32:37.591Z,82.16
2018-12-31T10:35:01.988Z,82.00
2018-12-31T10:37:26.410Z,81.87
2018-12-31T10:39:50.803Z,82.60
2018-12-31T10:42:15.342Z,83.31
2018-12-31T10:44:39.719Z,82.46
2018-12-31T10:47:04.135Z,83.05
2018-12-31T10:49:28.563Z,82.55
2018-12-31T10:51:52.975Z,82.65
2018-12-31T10:54:17.382Z,82.16
2018-12-31T10:56:41.776Z,82.75
2018-12-31T10:59:06.186Z,82.77
2018-12-31T11:01:30.628Z,83.63
2018-12-31T11:03:55.052Z,82.63
2018-12-31T11:06:19.453Z,82.26
2018-12-31T11:08:43.866Z,81.87
2018-12-31T11:11:08.300Z,82.83
2018-12-31T11:13:32.973Z,81.46
2018-12-31T11:15:57.398Z,81.05
2018-12-31T11:18:21.803Z,81.63
2018-12-31T11:20:46.206Z,82.12
2018-12-31T11:23:10.596Z,82.63
2018-12-31T11:25:35.012Z,83.47
2018-12-31T11:27:59.418Z,83.17
2018-12-31T11:30:23.829Z,82.81
2018-12-31T11:32:48.238Z,83.87
2018-12-31T11:35:12.699Z,83.95
2018-12-31T11:37:37.115Z,83.48
2018-12-31T11:40:01.541Z,84.13
2018-12-31T11:42:25.946Z,84.52
2018-12-31T11:44:50.331Z,84.55
2018-12-31T11:47:14.756Z,84.52
2018-12-31T11:49:39.143Z,84.19
2018-12-31T11:52:03.556Z,83.72
2018-12-31T11:54:27.942Z,84.95
2018-12-31T11:56:52.336Z,83.27
2018-12-31T11:59:16.724Z,83.06
2018-12-31T12:01:41.102Z,83.40
2018-12-31T12:04:05.535Z,83.25
2018-12-31T12:06:30.586Z,83.64
2018-12-31T12:08:57.309Z,83.78
2018-12-31T12:11:21.720Z,83.63
2018-12-31T12:13:46.114Z,84.26
2018-12-31T12:16:10.487Z,83.53
2018-12-31T12:18:34.980Z,83.91
2018-12-31T12:20:59.379Z,84.36
2018-12-31T12:23:23.741Z,84.29
2018-12-31T12:25:48.540Z,84.64
2018-12-31T12:28:12.911Z,84.74
2018-12-31T12:30:37.309Z,83.98
2018-12-31T12:33:01.688Z,83.86
2018-12-31T12:35:26.088Z,82.12
2018-12-31T12:37:50.492Z,81.83
2018-12-31T12:40:14.898Z,80.22
2018-12-31T12:42:39.298Z,81.91
2018-12-31T12:45:03.937Z,83.51
2018-12-31T12:47:28.315Z,83.31
2018-12-31T12:49:52.684Z,83.16
2018-12-31T12:52:17.105Z,83.60
2018-12-31T12:54:41.477Z,82.95
2018-12-31T12:57:05.884Z,82.41
2018-12-31T12:59:30.270Z,82.51
2018-12-31T13:01:55.075Z,83.11
2018-12-31T13:04:19.438Z,82.95
2018-12-31T13:06:43.853Z,82.74
2018-12-31T13:09:08.241Z,83.52
2018-12-31T13:11:32.623Z,82.54
2018-12-31T13:13:58.676Z,82.89
2018-12-31T13:16:23.081Z,83.47
2018-12-31T13:18:47.765Z,83.47
2018-12-31T13:21:12.178Z,83.29
2018-12-31T13:23:36.586Z,83.56
2018-12-31T13:26:00.975Z,83.17
2018-12-31T13:28:25.463Z,83.79
2018-12-31T13:30:49.867Z,83.88
2018-12-31T13:33:14.300Z,82.91
2018-12-31T13:35:38.683Z,83.52
2018-12-31T13:38:03.342Z,83.76
2018-12-31T13:40:27.738Z,83.27
2018-12-31T13:42:52.126Z,83.18
2018-12-31T13:45:16.550Z,83.28
2018-12-31T13:47:40.939Z,82.80
2018-12-31T13:50:06.007Z,82.09
2018-12-31T13:52:30.412Z,82.71
2018-12-31T13:54:55.199Z,82.54
2018-12-31T13:57:19.580Z,83.42
2018-12-31T13:59:44.881Z,83.71
2018-12-31T14:02:09.271Z,83.68
2018-12-31T14:04:33.657Z,83.03
2018-12-31T14:06:58.051Z,82.95
2018-12-31T14:09:22.443Z,83.25
2018-12-31T14:11:46.861Z,83.56
2018-12-31T14:14:11.273Z,84.10
2018-12-31T14:16:35.688Z,84.44
2018-12-31T14:19:00.084Z,83.16
2018-12-31T14:21:24.509Z,84.25
2018-12-31T14:23:48.920Z,84.14
2018-12-31T14:26:13.340Z,83.95
2018-12-31T14:28:37.793Z,84.13
2018-12-31T14:31:02.370Z,83.83
2018-12-31T14:33:26.819Z,83.88
2018-12-31T14:35:51.241Z,83.79
2018-12-31T14:38:15.646Z,83.39
2018-12-31T14:40:40.055Z,83.78
2018-12-31T14:43:04.493Z,84.08
2018-12-31T14:45:28.884Z,83.93
2018-12-31T14:47:53.323Z,84.69
2018-12-31T14:50:17.745Z,84.76
2018-12-31T14:52:42.167Z,84.39
2018-12-31T14:55:06.668Z,84.13
2018-12-31T14:57:31.076Z,84.56
2018-12-31T14:59:55.503Z,84.34
2018-12-31T15:02:19.915Z,83.91
2018-12-31T15:04:44.324Z,83.20
2018-12-31T15:07:09.012Z,81.98
2018-12-31T15:09:35.769Z,82.75
2018-12-31T15:12:00.174Z,84.17
2018-12-31T15:14:24.602Z,83.89
2018-12-31T15:16:48.995Z,83.52
2018-12-31T15:19:13.434Z,83.16
2018-12-31T15:21:37.867Z,82.73
2018-12-31T15:24:02.553Z,82.90
2018-12-31T15:26:26.970Z,83.47
2018-12-31T15:28:51.392Z,83.62
2018-12-31T15:31:15.812Z,83.71
2018-12-31T15:33:40.224Z,84.21
2018-12-31T15:36:04.628Z,84.27
2018-12-31T15:38:29.063Z,84.43
2018-12-31T15:40:53.447Z,84.40
2018-12-31T15:43:18.130Z,84.68
2018-12-31T15:45:42.521Z,84.94
2018-12-31T15:48:06.990Z,85.23
2018-12-31T15:50:31.394Z,84.82
2018-12-31T15:52:55.829Z,85.01
2018-12-31T15:55:20.363Z,84.68
2018-12-31T15:57:44.779Z,84.53
2018-12-31T16:00:10.029Z,85.32
2018-12-31T16:02:34.467Z,85.46
2018-12-31T16:04:58.859Z,84.87
2018-12-31T16:07:23.250Z,85.28
2018-12-31T16:09:47.671Z,84.89
2018-12-31T16:12:12.059Z,84.92
2018-12-31T16:14:36.490Z,84.74
2018-12-31T16:17:00.890Z,84.37
2018-12-31T16:19:25.589Z,84.37
2018-12-31T16:21:50.018Z,84.53
2018-12-31T16:24:14.434Z,84.98
2018-12-31T16:26:38.826Z,84.35
2018-12-31T16:29:03.230Z,85.09
2018-12-31T16:31:27.695Z,84.79
2018-12-31T16:33:52.089Z,84.18
2018-12-31T16:36:16.511Z,84.84
2018-12-31T16:38:41.096Z,84.98
2018-12-31T16:41:05.507Z,85.41
2018-12-31T16:43:29.964Z,85.55
2018-12-31T16:45:54.361Z,85.84
2018-12-31T16:48:18.755Z,85.82
2018-12-31T16:50:43.185Z,85.19
2018-12-31T16:53:07.575Z,84.33
2018-12-31T16:55:31.961Z,84.46
2018-12-31T16:57:56.358Z,85.16
2018-12-31T17:00:20.770Z,84.62
2018-12-31T17:02:45.198Z,83.40
2018-12-31T17:05:09.603Z,84.11
2018-12-31T17:07:34.010Z,84.64
2018-12-31T17:09:58.417Z,85.02
2018-12-31T17:12:22.851Z,84.39
2018-12-31T17:14:47.260Z,84.65
2018-12-31T17:17:11.668Z,84.80
2018-12-31T17:19:36.090Z,84.43
2018-12-31T17:22:00.480Z,84.19
2018-12-31T17:24:24.916Z,84.38
2018-12-31T17:26:49.340Z,84.34
2018-12-31T17:29:13.764Z,84.25
2018-12-31T17:31:38.148Z,83.53
2018-12-31T17:34:02.962Z,83.77
2018-12-31T17:36:27.356Z,83.55
2018-12-31T17:38:51.763Z,82.87
2018-12-31T17:41:16.161Z,82.97
2018-12-31T17:43:40.556Z,83.00
2018-12-31T17:46:04.985Z,83.33
2018-12-31T17:48:29.390Z,82.71
2018-12-31T17:50:53.796Z,83.05
2018-12-31T17:53:18.369Z,82.83
2018-12-31T17:55:42.791Z,82.65
2018-12-31T17:58:07.181Z,82.48
2018-12-31T18:00:31.590Z,82.32
2018-12-31T18:02:55.988Z,81.81
2018-12-31T18:05:20.424Z,81.58
2018-12-31T18:07:44.833Z,81.76
2018-12-31T18:10:11.591Z,81.23
2018-12-31T18:12:36.206Z,81.72
2018-12-31T18:15:00.635Z,82.14
2018-12-31T18:17:25.083Z,82.40
2018-12-31T18:19:49.495Z,82.27
2018-12-31T18:22:13.931Z,82.03
2018-12-31T18:24:38.339Z,81.97
2018-12-31T18:27:02.745Z,81.68
2018-12-31T18:29:27.423Z,81.71
2018-12-31T18:31:52.114Z,81.42
2018-12-31T18:34:16.640Z,81.38
2018-12-31T18:36:41.023Z,81.66
2018-12-31T18:39:06.907Z,81.63
2018-12-31T18:41:31.313Z,82.11
2018-12-31T18:43:55.732Z,82.36
2018-12-31T18:46:20.139Z,82.11
2018-12-31T18:48:44.854Z,81.79
2018-12-31T18:51:09.253Z,81.82
2018-12-31T18:53:33.658Z,82.27
2018-12-31T18:55:58.049Z,81.90
2018-12-31T18:58:22.430Z,82.04
2018-12-31T19:00:46.851Z,81.86
2018-12-31T19:03:11.259Z,81.69
2018-12-31T19:05:35.676Z,81.70
2018-12-31T19:08:00.076Z,82.09
2018-12-31T19:10:24.467Z,82.00
2018-12-31T19:12:48.865Z,81.45
2018-12-31T19:15:13.293Z,81.41
2018-12-31T19:17:37.677Z,82.16
2018-12-31T19:20:02.088Z,82.09
2018-12-31T19:22:26.493Z,81.98
2018-12-31T19:24:50.873Z,82.14
2018-12-31T19:27:15.274Z,82.46
2018-12-31T19:29:39.672Z,82.79
2018-12-31T19:32:04.113Z,82.14
2018-12-31T19:34:28.489Z,81.22
2018-12-31T19:36:52.911Z,81.08
2018-12-31T19:39:17.297Z,80.86
2018-12-31T19:41:41.734Z,81.20
2018-12-31T19:44:06.149Z,80.41
2018-12-31T19:46:30.537Z,80.47
2018-12-31T19:48:54.946Z,81.33
2018-12-31T19:51:19.338Z,81.08
2018-12-31T19:53:43.742Z,80.53
2018-12-31T19:56:08.142Z,80.47
2018-12-31T19:58:32.562Z,80.85
2018-12-31T20:00:56.955Z,80.48
2018-12-31T20:03:21.541Z,80.72
2018-12-31T20:05:45.942Z,81.26
2018-12-31T20:08:10.484Z,80.33
2018-12-31T20:10:34.866Z,81.09
2018-12-31T20:12:59.273Z,80.82
2018-12-31T20:15:23.709Z,81.27
2018-12-31T20:17:49.449Z,81.21
2018-12-31T20:20:13.929Z,81.10
2018-12-31T20:22:38.601Z,81.46
2018-12-31T20:25:03.010Z,81.23
2018-12-31T20:27:27.409Z,80.91
2018-12-31T20:29:51.834Z,80.97
2018-12-31T20:32:16.248Z,80.55
2018-12-31T20:34:40.675Z,80.04
2018-12-31T20:37:05.082Z,80.39
2018-12-31T20:39:29.504Z,80.19
2018-12-31T20:41:53.932Z,80.24
2018-12-31T20:44:18.646Z,80.39
2018-12-31T20:46:43.053Z,79.86
2018-12-31T20:49:07.441Z,80.05
2018-12-31T20:51:31.848Z,80.56
2018-12-31T20:53:56.244Z,81.05
2018-12-31T20:56:20.663Z,80.16
2018-12-31T20:58:45.064Z,80.69
2018-12-31T21:01:09.465Z,80.43
2018-12-31T21:03:33.887Z,80.53
2018-12-31T21:05:58.276Z,80.86
2018-12-31T21:08:22.682Z,80.24
2018-12-31T21:10:49.433Z,80.04
2018-12-31T21:13:13.833Z,80.17
2018-12-31T21:15:38.233Z,80.19
2018-12-31T21:18:02.651Z,80.14
2018-12-31T21:20:27.040Z,80.73
2018-12-31T21:22:51.862Z,80.73
2018-12-31T21:25:16.285Z,80.89
2018-12-31T21:27:40.673Z,80.73
2018-12-31T21:30:08.715Z,80.21
2018-12-31T21:32:33.091Z,79.81
2018-12-31T21:34:57.498Z,79.77
2018-12-31T21:37:21.900Z,79.92
2018-12-31T21:39:46.311Z,80.11
2018-12-31T21:42:10.978Z,79.80
2018-12-31T21:44:35.380Z,79.67
2018-12-31T21:46:59.777Z,80.11
2018-12-31T21:49:24.221Z,80.09
2018-12-31T21:51:48.631Z,79.78
2018-12-31T21:54:13.028Z,79.70
2018-12-31T21:56:37.430Z,79.47
2018-12-31T21:59:01.884Z,79.68
2018-12-31T22:01:26.575Z,79.34
2018-12-31T22:03:50.964Z,79.42
2018-12-31T22:06:15.378Z,79.03
2018-12-31T22:08:39.783Z,79.24
2018-12-31T22:11:04.192Z,79.27
2018-12-31T22:13:28.598Z,79.93
2018-12-31T22:15:52.982Z,79.96
2018-12-31T22:18:17.399Z,80.03
2018-12-31T22:20:42.072Z,79.70
2018-12-31T22:23:06.498Z,80.09
2018-12-31T22:25:30.914Z,80.48
2018-12-31T22:27:55.400Z,80.50
2018-12-31T22:30:19.804Z,80.59
2018-12-31T22:32:44.249Z,80.67
2018-12-31T22:35:08.638Z,80.92
2018-12-31T22:37:33.072Z,81.55
2018-12-31T22:39:57.741Z,81.76
2018-12-31T22:42:22.158Z,81.46
2018-12-31T22:44:46.583Z,81.77
2018-12-31T22:47:11.006Z,82.21
2018-12-31T22:49:35.430Z,82.57
2018-12-31T22:51:59.855Z,82.38
2018-12-31T22:54:24.252Z,83.02
2018-12-31T22:56:48.644Z,83.07
2018-12-31T22:59:13.136Z,83.30
2018-12-31T23:01:37.536Z,82.59
2018-12-31T23:04:01.945Z,82.07
2018-12-31T23:06:26.361Z,81.76
2018-12-31T23:08:50.751Z,81.63
2018-12-31T23:11:15.160Z,81.98
2018-12-31T23:13:39.556Z,82.17
2018-12-31T23:16:03.959Z,82.36
2018-12-31T23:18:28.367Z,82.30
2018-12-31T23:20:52.803Z,82.46
2018-12-31T23:23:17.192Z,82.23
2018-12-31T23:25:41.614Z,82.10
2018-12-31T23:28:06.024Z,82.07
2018-12-31T23:30:30.476Z,82.26
2018-12-31T23:32:54.891Z,82.15
2018-12-31T23:35:19.282Z,82.12
2018-12-31T23:37:43.695Z,81.98
2018-12-31T23:40:09.528Z,81.69
2018-12-31T23:42:33.955Z,81.52
2018-12-31T23:44:58.397Z,81.96
2018-12-31T23:47:22.822Z,81.81
2018-12-31T23:49:47.242Z,82.14
2018-12-31T23:52:11.725Z,82.22
2018-12-31T23:54:36.320Z,82.73
2018-12-31T23:57:00.719Z,83.23
2018-12-31T23:59:25.134Z,83.27
